sensor_id;sensor_type;location;lat;lon;timestamp;P1;durP1;ratioP1;P2;durP2;ratioP2
35372;SDS011;21476;51.652;7.852;2023-02-19T00:01:07;40.80;;;27.13;;
35372;SDS011;21476;51.652;7.852;2023-02-19T00:03:34;38.20;;;25.50;;
35372;SDS011;21476;51.652;7.852;2023-02-19T00:06:01;37.97;;;25.33;;
35372;SDS011;21476;51.652;7.852;2023-02-19T00:08:32;41.85;;;25.88;;
35372;SDS011;21476;51.652;7.852;2023-02-19T00:11:02;38.97;;;24.70;;
35372;SDS011;21476;51.652;7.852;2023-02-19T00:13:29;37.85;;;23.42;;
35372;SDS011;21476;51.652;7.852;2023-02-19T00:15:55;34.28;;;23.15;;
35372;SDS011;21476;51.652;7.852;2023-02-19T00:18:22;33.75;;;22.67;;
35372;SDS011;21476;51.652;7.852;2023-02-19T00:20:48;34.92;;;23.23;;
35372;SDS011;21476;51.652;7.852;2023-02-19T00:23:13;33.78;;;24.00;;
35372;SDS011;21476;51.652;7.852;2023-02-19T00:25:39;37.08;;;25.25;;
35372;SDS011;21476;51.652;7.852;2023-02-19T00:28:05;37.97;;;24.48;;
35372;SDS011;21476;51.652;7.852;2023-02-19T00:30:30;37.05;;;24.15;;
35372;SDS011;21476;51.652;7.852;2023-02-19T00:32:56;37.72;;;26.08;;
35372;SDS011;21476;51.652;7.852;2023-02-19T00:35:22;38.47;;;26.40;;
35372;SDS011;21476;51.652;7.852;2023-02-19T00:37:47;35.67;;;25.02;;
35372;SDS011;21476;51.652;7.852;2023-02-19T00:40:13;43.05;;;29.27;;
35372;SDS011;21476;51.652;7.852;2023-02-19T00:42:39;50.95;;;33.20;;
35372;SDS011;21476;51.652;7.852;2023-02-19T00:45:05;50.28;;;35.20;;
35372;SDS011;21476;51.652;7.852;2023-02-19T00:47:31;54.75;;;37.97;;
35372;SDS011;21476;51.652;7.852;2023-02-19T00:49:56;56.15;;;38.17;;
35372;SDS011;21476;51.652;7.852;2023-02-19T00:52:22;59.65;;;39.33;;
35372;SDS011;21476;51.652;7.852;2023-02-19T00:54:47;63.22;;;41.55;;
35372;SDS011;21476;51.652;7.852;2023-02-19T00:57:13;64.25;;;43.05;;
35372;SDS011;21476;51.652;7.852;2023-02-19T00:59:39;60.75;;;40.50;;
35372;SDS011;21476;51.652;7.852;2023-02-19T01:02:04;59.28;;;41.05;;
35372;SDS011;21476;51.652;7.852;2023-02-19T01:04:30;59.42;;;40.28;;
35372;SDS011;21476;51.652;7.852;2023-02-19T01:06:55;56.47;;;39.58;;
35372;SDS011;21476;51.652;7.852;2023-02-19T01:09:21;61.08;;;41.83;;
35372;SDS011;21476;51.652;7.852;2023-02-19T01:11:47;55.60;;;37.47;;
35372;SDS011;21476;51.652;7.852;2023-02-19T01:14:12;59.13;;;41.80;;
35372;SDS011;21476;51.652;7.852;2023-02-19T01:16:38;60.90;;;40.83;;
35372;SDS011;21476;51.652;7.852;2023-02-19T01:19:04;61.28;;;41.55;;
35372;SDS011;21476;51.652;7.852;2023-02-19T01:21:29;62.50;;;41.33;;
35372;SDS011;21476;51.652;7.852;2023-02-19T01:23:55;60.80;;;40.65;;
35372;SDS011;21476;51.652;7.852;2023-02-19T01:26:23;61.50;;;40.60;;
35372;SDS011;21476;51.652;7.852;2023-02-19T01:28:50;62.95;;;42.42;;
35372;SDS011;21476;51.652;7.852;2023-02-19T01:31:17;65.30;;;44.05;;
35372;SDS011;21476;51.652;7.852;2023-02-19T01:33:45;61.90;;;42.40;;
35372;SDS011;21476;51.652;7.852;2023-02-19T01:36:12;62.50;;;42.10;;
35372;SDS011;21476;51.652;7.852;2023-02-19T01:38:39;59.45;;;41.92;;
35372;SDS011;21476;51.652;7.852;2023-02-19T01:41:06;57.80;;;41.45;;
35372;SDS011;21476;51.652;7.852;2023-02-19T01:43:34;65.40;;;42.42;;
35372;SDS011;21476;51.652;7.852;2023-02-19T01:46:18;56.95;;;38.85;;
35372;SDS011;21476;51.652;7.852;2023-02-19T01:48:44;58.20;;;39.10;;
35372;SDS011;21476;51.652;7.852;2023-02-19T01:51:14;53.58;;;38.05;;
35372;SDS011;21476;51.652;7.852;2023-02-19T01:53:44;55.50;;;37.15;;
35372;SDS011;21476;51.652;7.852;2023-02-19T01:56:14;52.15;;;36.88;;
35372;SDS011;21476;51.652;7.852;2023-02-19T01:58:42;55.67;;;36.35;;
35372;SDS011;21476;51.652;7.852;2023-02-19T02:01:09;52.15;;;37.58;;
35372;SDS011;21476;51.652;7.852;2023-02-19T02:03:35;46.20;;;34.05;;
35372;SDS011;21476;51.652;7.852;2023-02-19T02:08:37;55.63;;;35.95;;
35372;SDS011;21476;51.652;7.852;2023-02-19T02:11:22;56.92;;;37.55;;
35372;SDS011;21476;51.652;7.852;2023-02-19T02:13:47;58.95;;;37.97;;
35372;SDS011;21476;51.652;7.852;2023-02-19T02:24:16;60.55;;;41.78;;
35372;SDS011;21476;51.652;7.852;2023-02-19T02:29:46;53.35;;;36.17;;
35372;SDS011;21476;51.652;7.852;2023-02-19T02:32:24;55.17;;;36.47;;
35372;SDS011;21476;51.652;7.852;2023-02-19T02:34:58;56.45;;;35.85;;
35372;SDS011;21476;51.652;7.852;2023-02-19T02:37:29;48.42;;;34.40;;
35372;SDS011;21476;51.652;7.852;2023-02-19T02:39:59;48.65;;;32.45;;
35372;SDS011;21476;51.652;7.852;2023-02-19T02:42:27;38.35;;;27.40;;
35372;SDS011;21476;51.652;7.852;2023-02-19T02:44:53;36.90;;;26.60;;
35372;SDS011;21476;51.652;7.852;2023-02-19T02:47:50;33.20;;;23.52;;
35372;SDS011;21476;51.652;7.852;2023-02-19T02:50:20;33.50;;;22.92;;
35372;SDS011;21476;51.652;7.852;2023-02-19T02:52:51;33.90;;;23.13;;
35372;SDS011;21476;51.652;7.852;2023-02-19T02:55:41;32.90;;;22.58;;
35372;SDS011;21476;51.652;7.852;2023-02-19T02:58:09;30.13;;;20.42;;
35372;SDS011;21476;51.652;7.852;2023-02-19T03:00:36;29.80;;;20.35;;
35372;SDS011;21476;51.652;7.852;2023-02-19T03:03:25;26.90;;;18.65;;
35372;SDS011;21476;51.652;7.852;2023-02-19T03:05:53;28.00;;;19.83;;
35372;SDS011;21476;51.652;7.852;2023-02-19T03:08:37;29.20;;;19.98;;
35372;SDS011;21476;51.652;7.852;2023-02-19T03:11:04;32.45;;;20.90;;
35372;SDS011;21476;51.652;7.852;2023-02-19T03:13:55;25.90;;;18.80;;
35372;SDS011;21476;51.652;7.852;2023-02-19T03:16:50;27.77;;;20.30;;
35372;SDS011;21476;51.652;7.852;2023-02-19T03:19:39;27.70;;;18.83;;
35372;SDS011;21476;51.652;7.852;2023-02-19T03:22:28;27.75;;;20.10;;
35372;SDS011;21476;51.652;7.852;2023-02-19T03:24:58;27.98;;;19.65;;
35372;SDS011;21476;51.652;7.852;2023-02-19T03:27:46;30.65;;;20.92;;
35372;SDS011;21476;51.652;7.852;2023-02-19T03:30:19;34.67;;;20.63;;
35372;SDS011;21476;51.652;7.852;2023-02-19T03:32:52;29.00;;;19.50;;
35372;SDS011;21476;51.652;7.852;2023-02-19T03:35:21;30.48;;;18.90;;
35372;SDS011;21476;51.652;7.852;2023-02-19T03:37:56;26.45;;;17.15;;
35372;SDS011;21476;51.652;7.852;2023-02-19T03:40:25;21.98;;;14.20;;
35372;SDS011;21476;51.652;7.852;2023-02-19T03:43:01;25.80;;;16.25;;
35372;SDS011;21476;51.652;7.852;2023-02-19T03:50:58;23.60;;;15.77;;
35372;SDS011;21476;51.652;7.852;2023-02-19T03:53:48;25.92;;;16.00;;
35372;SDS011;21476;51.652;7.852;2023-02-19T03:56:38;27.67;;;16.88;;
35372;SDS011;21476;51.652;7.852;2023-02-19T03:59:16;24.10;;;16.27;;
35372;SDS011;21476;51.652;7.852;2023-02-19T04:01:57;32.13;;;17.77;;
35372;SDS011;21476;51.652;7.852;2023-02-19T04:04:35;28.50;;;17.88;;
35372;SDS011;21476;51.652;7.852;2023-02-19T04:07:21;25.02;;;14.73;;
35372;SDS011;21476;51.652;7.852;2023-02-19T04:09:49;16.95;;;11.02;;
35372;SDS011;21476;51.652;7.852;2023-02-19T04:12:17;20.95;;;9.82;;
35372;SDS011;21476;51.652;7.852;2023-02-19T04:14:45;16.63;;;10.20;;
35372;SDS011;21476;51.652;7.852;2023-02-19T04:17:20;15.48;;;9.73;;
35372;SDS011;21476;51.652;7.852;2023-02-19T04:19:51;10.77;;;8.00;;
35372;SDS011;21476;51.652;7.852;2023-02-19T04:22:18;14.32;;;8.82;;
35372;SDS011;21476;51.652;7.852;2023-02-19T04:24:47;12.73;;;8.43;;
35372;SDS011;21476;51.652;7.852;2023-02-19T04:27:16;14.48;;;9.93;;
35372;SDS011;21476;51.652;7.852;2023-02-19T04:29:41;13.85;;;9.60;;
35372;SDS011;21476;51.652;7.852;2023-02-19T04:32:10;19.23;;;11.77;;
35372;SDS011;21476;51.652;7.852;2023-02-19T04:34:36;27.27;;;16.20;;
35372;SDS011;21476;51.652;7.852;2023-02-19T04:37:02;30.80;;;18.52;;
35372;SDS011;21476;51.652;7.852;2023-02-19T04:39:28;37.40;;;22.17;;
35372;SDS011;21476;51.652;7.852;2023-02-19T04:41:53;35.55;;;22.65;;
35372;SDS011;21476;51.652;7.852;2023-02-19T04:44:19;34.30;;;21.40;;
35372;SDS011;21476;51.652;7.852;2023-02-19T04:46:45;39.50;;;22.48;;
35372;SDS011;21476;51.652;7.852;2023-02-19T04:49:11;35.33;;;20.60;;
35372;SDS011;21476;51.652;7.852;2023-02-19T04:51:37;37.72;;;22.15;;
35372;SDS011;21476;51.652;7.852;2023-02-19T04:54:03;32.83;;;20.38;;
35372;SDS011;21476;51.652;7.852;2023-02-19T04:56:29;38.92;;;19.35;;
35372;SDS011;21476;51.652;7.852;2023-02-19T04:58:55;32.47;;;20.10;;
35372;SDS011;21476;51.652;7.852;2023-02-19T05:01:20;30.05;;;20.20;;
35372;SDS011;21476;51.652;7.852;2023-02-19T05:03:46;32.60;;;18.98;;
35372;SDS011;21476;51.652;7.852;2023-02-19T05:06:12;30.67;;;18.90;;
35372;SDS011;21476;51.652;7.852;2023-02-19T05:08:38;32.47;;;19.10;;
35372;SDS011;21476;51.652;7.852;2023-02-19T05:11:05;30.70;;;17.27;;
35372;SDS011;21476;51.652;7.852;2023-02-19T05:13:32;31.95;;;17.92;;
35372;SDS011;21476;51.652;7.852;2023-02-19T05:16:02;31.90;;;17.73;;
35372;SDS011;21476;51.652;7.852;2023-02-19T05:18:33;27.73;;;17.23;;
35372;SDS011;21476;51.652;7.852;2023-02-19T05:20:59;28.08;;;15.93;;
35372;SDS011;21476;51.652;7.852;2023-02-19T05:23:26;31.10;;;17.00;;
35372;SDS011;21476;51.652;7.852;2023-02-19T05:25:52;27.13;;;16.65;;
35372;SDS011;21476;51.652;7.852;2023-02-19T05:28:18;27.73;;;15.52;;
35372;SDS011;21476;51.652;7.852;2023-02-19T05:30:48;22.85;;;15.18;;
35372;SDS011;21476;51.652;7.852;2023-02-19T05:33:15;25.48;;;16.23;;
35372;SDS011;21476;51.652;7.852;2023-02-19T05:35:42;24.98;;;15.73;;
35372;SDS011;21476;51.652;7.852;2023-02-19T05:38:09;22.98;;;15.98;;
35372;SDS011;21476;51.652;7.852;2023-02-19T05:40:35;26.67;;;16.48;;
35372;SDS011;21476;51.652;7.852;2023-02-19T05:43:01;24.63;;;16.45;;
35372;SDS011;21476;51.652;7.852;2023-02-19T05:45:28;22.23;;;14.65;;
35372;SDS011;21476;51.652;7.852;2023-02-19T05:47:53;26.17;;;15.98;;
35372;SDS011;21476;51.652;7.852;2023-02-19T05:50:19;32.58;;;16.23;;
35372;SDS011;21476;51.652;7.852;2023-02-19T05:52:45;26.90;;;16.20;;
35372;SDS011;21476;51.652;7.852;2023-02-19T05:55:10;25.30;;;16.38;;
35372;SDS011;21476;51.652;7.852;2023-02-19T05:57:40;30.05;;;16.90;;
35372;SDS011;21476;51.652;7.852;2023-02-19T06:00:11;25.38;;;15.98;;
35372;SDS011;21476;51.652;7.852;2023-02-19T06:02:38;28.25;;;17.30;;
35372;SDS011;21476;51.652;7.852;2023-02-19T06:05:04;26.25;;;16.77;;
35372;SDS011;21476;51.652;7.852;2023-02-19T06:07:31;26.50;;;16.05;;
35372;SDS011;21476;51.652;7.852;2023-02-19T06:09:56;30.50;;;17.10;;
35372;SDS011;21476;51.652;7.852;2023-02-19T06:12:22;37.42;;;17.75;;
35372;SDS011;21476;51.652;7.852;2023-02-19T06:14:48;29.70;;;17.42;;
35372;SDS011;21476;51.652;7.852;2023-02-19T06:17:13;29.67;;;16.65;;
35372;SDS011;21476;51.652;7.852;2023-02-19T06:19:39;24.17;;;17.08;;
35372;SDS011;21476;51.652;7.852;2023-02-19T06:22:05;24.27;;;15.43;;
35372;SDS011;21476;51.652;7.852;2023-02-19T06:24:31;28.02;;;16.27;;
35372;SDS011;21476;51.652;7.852;2023-02-19T06:26:57;30.40;;;15.95;;
35372;SDS011;21476;51.652;7.852;2023-02-19T06:29:23;23.10;;;14.32;;
35372;SDS011;21476;51.652;7.852;2023-02-19T06:31:48;26.92;;;15.90;;
35372;SDS011;21476;51.652;7.852;2023-02-19T06:34:14;23.75;;;15.73;;
35372;SDS011;21476;51.652;7.852;2023-02-19T06:36:40;27.58;;;16.08;;
35372;SDS011;21476;51.652;7.852;2023-02-19T06:39:06;23.20;;;15.07;;
35372;SDS011;21476;51.652;7.852;2023-02-19T06:41:31;29.38;;;17.35;;
35372;SDS011;21476;51.652;7.852;2023-02-19T06:43:57;23.98;;;17.10;;
35372;SDS011;21476;51.652;7.852;2023-02-19T06:46:23;24.38;;;16.55;;
35372;SDS011;21476;51.652;7.852;2023-02-19T06:48:48;26.40;;;17.35;;
35372;SDS011;21476;51.652;7.852;2023-02-19T06:51:15;29.05;;;16.77;;
35372;SDS011;21476;51.652;7.852;2023-02-19T06:53:50;24.80;;;16.02;;
35372;SDS011;21476;51.652;7.852;2023-02-19T06:56:34;27.65;;;14.95;;
35372;SDS011;21476;51.652;7.852;2023-02-19T06:59:03;30.63;;;16.05;;
35372;SDS011;21476;51.652;7.852;2023-02-19T07:01:32;27.25;;;16.70;;
35372;SDS011;21476;51.652;7.852;2023-02-19T07:03:58;25.55;;;15.63;;
35372;SDS011;21476;51.652;7.852;2023-02-19T07:06:25;23.77;;;15.85;;
35372;SDS011;21476;51.652;7.852;2023-02-19T07:08:51;21.80;;;16.00;;
35372;SDS011;21476;51.652;7.852;2023-02-19T07:11:18;28.42;;;16.13;;
35372;SDS011;21476;51.652;7.852;2023-02-19T07:13:44;29.75;;;17.33;;
35372;SDS011;21476;51.652;7.852;2023-02-19T07:16:09;28.20;;;18.10;;
35372;SDS011;21476;51.652;7.852;2023-02-19T07:18:36;26.80;;;17.95;;
35372;SDS011;21476;51.652;7.852;2023-02-19T07:21:11;26.77;;;19.50;;
35372;SDS011;21476;51.652;7.852;2023-02-19T07:23:38;26.63;;;18.83;;
35372;SDS011;21476;51.652;7.852;2023-02-19T07:26:07;25.23;;;18.10;;
35372;SDS011;21476;51.652;7.852;2023-02-19T07:31:06;26.70;;;18.48;;
35372;SDS011;21476;51.652;7.852;2023-02-19T07:33:32;25.58;;;16.92;;
35372;SDS011;21476;51.652;7.852;2023-02-19T07:35:58;23.08;;;17.08;;
35372;SDS011;21476;51.652;7.852;2023-02-19T07:38:23;23.95;;;16.80;;
35372;SDS011;21476;51.652;7.852;2023-02-19T07:43:16;25.73;;;17.13;;
35372;SDS011;21476;51.652;7.852;2023-02-19T07:45:42;21.20;;;16.88;;
35372;SDS011;21476;51.652;7.852;2023-02-19T07:48:08;30.02;;;16.98;;
35372;SDS011;21476;51.652;7.852;2023-02-19T07:50:34;24.30;;;16.75;;
35372;SDS011;21476;51.652;7.852;2023-02-19T07:53:00;25.88;;;16.60;;
35372;SDS011;21476;51.652;7.852;2023-02-19T07:55:25;22.45;;;14.88;;
35372;SDS011;21476;51.652;7.852;2023-02-19T07:57:51;23.98;;;13.95;;
35372;SDS011;21476;51.652;7.852;2023-02-19T08:00:17;21.83;;;14.50;;
35372;SDS011;21476;51.652;7.852;2023-02-19T08:02:44;24.02;;;15.35;;
35372;SDS011;21476;51.652;7.852;2023-02-19T08:05:29;22.30;;;15.60;;
35372;SDS011;21476;51.652;7.852;2023-02-19T08:07:56;22.13;;;15.18;;
35372;SDS011;21476;51.652;7.852;2023-02-19T08:10:23;22.65;;;14.85;;
35372;SDS011;21476;51.652;7.852;2023-02-19T08:13:09;19.98;;;14.15;;
35372;SDS011;21476;51.652;7.852;2023-02-19T08:15:46;20.45;;;12.90;;
35372;SDS011;21476;51.652;7.852;2023-02-19T08:18:13;17.23;;;11.48;;
35372;SDS011;21476;51.652;7.852;2023-02-19T08:20:40;18.90;;;10.65;;
35372;SDS011;21476;51.652;7.852;2023-02-19T08:23:07;17.23;;;9.50;;
35372;SDS011;21476;51.652;7.852;2023-02-19T08:25:33;16.90;;;10.48;;
35372;SDS011;21476;51.652;7.852;2023-02-19T08:27:59;15.25;;;10.75;;
35372;SDS011;21476;51.652;7.852;2023-02-19T08:30:26;13.45;;;9.88;;
35372;SDS011;21476;51.652;7.852;2023-02-19T08:32:52;13.75;;;7.85;;
35372;SDS011;21476;51.652;7.852;2023-02-19T08:35:18;12.90;;;8.48;;
35372;SDS011;21476;51.652;7.852;2023-02-19T08:37:44;12.40;;;8.45;;
35372;SDS011;21476;51.652;7.852;2023-02-19T08:40:10;15.18;;;8.90;;
35372;SDS011;21476;51.652;7.852;2023-02-19T08:42:36;13.73;;;9.57;;
35372;SDS011;21476;51.652;7.852;2023-02-19T08:45:02;15.75;;;8.75;;
35372;SDS011;21476;51.652;7.852;2023-02-19T08:47:28;12.90;;;7.93;;
35372;SDS011;21476;51.652;7.852;2023-02-19T08:49:54;14.45;;;9.07;;
35372;SDS011;21476;51.652;7.852;2023-02-19T08:52:19;12.57;;;7.65;;
35372;SDS011;21476;51.652;7.852;2023-02-19T08:54:45;10.70;;;7.43;;
35372;SDS011;21476;51.652;7.852;2023-02-19T08:57:10;11.68;;;6.72;;
35372;SDS011;21476;51.652;7.852;2023-02-19T08:59:36;10.95;;;7.57;;
35372;SDS011;21476;51.652;7.852;2023-02-19T09:02:02;11.07;;;6.88;;
35372;SDS011;21476;51.652;7.852;2023-02-19T09:04:27;11.38;;;7.32;;
35372;SDS011;21476;51.652;7.852;2023-02-19T09:06:53;9.93;;;5.97;;
35372;SDS011;21476;51.652;7.852;2023-02-19T09:09:18;10.68;;;7.30;;
35372;SDS011;21476;51.652;7.852;2023-02-19T09:11:44;10.75;;;7.15;;
35372;SDS011;21476;51.652;7.852;2023-02-19T09:14:10;8.40;;;6.10;;
35372;SDS011;21476;51.652;7.852;2023-02-19T09:16:35;9.32;;;6.43;;
35372;SDS011;21476;51.652;7.852;2023-02-19T09:19:02;11.48;;;6.47;;
35372;SDS011;21476;51.652;7.852;2023-02-19T09:21:29;11.85;;;6.72;;
35372;SDS011;21476;51.652;7.852;2023-02-19T09:23:54;11.07;;;6.57;;
35372;SDS011;21476;51.652;7.852;2023-02-19T09:26:20;8.10;;;5.90;;
35372;SDS011;21476;51.652;7.852;2023-02-19T09:28:46;12.68;;;6.53;;
35372;SDS011;21476;51.652;7.852;2023-02-19T09:31:13;10.20;;;6.82;;
35372;SDS011;21476;51.652;7.852;2023-02-19T09:33:43;8.43;;;5.50;;
35372;SDS011;21476;51.652;7.852;2023-02-19T09:36:10;6.75;;;4.35;;
35372;SDS011;21476;51.652;7.852;2023-02-19T09:38:37;6.47;;;2.70;;
35372;SDS011;21476;51.652;7.852;2023-02-19T09:41:07;5.50;;;2.75;;
35372;SDS011;21476;51.652;7.852;2023-02-19T09:43:53;2.47;;;1.63;;
35372;SDS011;21476;51.652;7.852;2023-02-19T09:48:52;5.72;;;2.45;;
35372;SDS011;21476;51.652;7.852;2023-02-19T09:53:51;5.03;;;2.35;;
35372;SDS011;21476;51.652;7.852;2023-02-19T09:56:19;4.70;;;2.03;;
35372;SDS011;21476;51.652;7.852;2023-02-19T09:58:47;4.88;;;1.73;;
35372;SDS011;21476;51.652;7.852;2023-02-19T10:01:18;4.40;;;2.70;;
35372;SDS011;21476;51.652;7.852;2023-02-19T10:03:45;3.67;;;2.30;;
35372;SDS011;21476;51.652;7.852;2023-02-19T10:06:26;4.13;;;2.25;;
35372;SDS011;21476;51.652;7.852;2023-02-19T10:09:13;3.50;;;1.90;;
35372;SDS011;21476;51.652;7.852;2023-02-19T10:11:50;7.10;;;2.88;;
35372;SDS011;21476;51.652;7.852;2023-02-19T10:14:18;3.67;;;2.40;;
35372;SDS011;21476;51.652;7.852;2023-02-19T10:17:14;4.53;;;2.50;;
35372;SDS011;21476;51.652;7.852;2023-02-19T10:19:53;7.80;;;3.10;;
35372;SDS011;21476;51.652;7.852;2023-02-19T10:22:20;6.72;;;4.15;;
35372;SDS011;21476;51.652;7.852;2023-02-19T10:24:48;6.88;;;4.18;;
35372;SDS011;21476;51.652;7.852;2023-02-19T10:27:16;6.13;;;4.32;;
35372;SDS011;21476;51.652;7.852;2023-02-19T10:29:43;8.07;;;4.88;;
35372;SDS011;21476;51.652;7.852;2023-02-19T10:32:14;7.20;;;4.45;;
35372;SDS011;21476;51.652;7.852;2023-02-19T10:34:54;8.07;;;5.78;;
35372;SDS011;21476;51.652;7.852;2023-02-19T10:37:46;7.90;;;5.30;;
35372;SDS011;21476;51.652;7.852;2023-02-19T10:40:18;6.68;;;4.45;;
35372;SDS011;21476;51.652;7.852;2023-02-19T10:42:50;6.95;;;4.80;;
35372;SDS011;21476;51.652;7.852;2023-02-19T10:45:31;5.50;;;3.75;;
35372;SDS011;21476;51.652;7.852;2023-02-19T10:48:01;4.82;;;2.90;;
35372;SDS011;21476;51.652;7.852;2023-02-19T10:50:31;6.25;;;2.78;;
35372;SDS011;21476;51.652;7.852;2023-02-19T10:53:08;2.70;;;1.45;;
35372;SDS011;21476;51.652;7.852;2023-02-19T10:55:57;2.58;;;1.50;;
35372;SDS011;21476;51.652;7.852;2023-02-19T10:58:31;4.20;;;1.65;;
35372;SDS011;21476;51.652;7.852;2023-02-19T11:01:18;2.28;;;1.45;;
35372;SDS011;21476;51.652;7.852;2023-02-19T11:03:46;2.60;;;1.60;;
35372;SDS011;21476;51.652;7.852;2023-02-19T11:06:13;2.15;;;1.20;;
35372;SDS011;21476;51.652;7.852;2023-02-19T11:11:20;4.25;;;2.30;;
35372;SDS011;21476;51.652;7.852;2023-02-19T11:14:19;5.90;;;3.30;;
35372;SDS011;21476;51.652;7.852;2023-02-19T11:22:02;5.50;;;3.28;;
35372;SDS011;21476;51.652;7.852;2023-02-19T11:24:46;19.58;;;9.73;;
35372;SDS011;21476;51.652;7.852;2023-02-19T11:27:20;5.30;;;2.90;;
35372;SDS011;21476;51.652;7.852;2023-02-19T11:29:47;4.43;;;3.35;;
35372;SDS011;21476;51.652;7.852;2023-02-19T11:34:44;3.55;;;2.10;;
35372;SDS011;21476;51.652;7.852;2023-02-19T11:37:12;3.15;;;1.50;;
35372;SDS011;21476;51.652;7.852;2023-02-19T11:39:43;5.47;;;3.15;;
35372;SDS011;21476;51.652;7.852;2023-02-19T11:42:17;5.53;;;2.80;;
35372;SDS011;21476;51.652;7.852;2023-02-19T11:53:52;7.93;;;4.55;;
35372;SDS011;21476;51.652;7.852;2023-02-19T11:56:28;3.75;;;1.95;;
35372;SDS011;21476;51.652;7.852;2023-02-19T11:59:26;4.63;;;2.60;;
35372;SDS011;21476;51.652;7.852;2023-02-19T12:05:15;35.08;;;17.02;;
35372;SDS011;21476;51.652;7.852;2023-02-19T12:07:52;66.55;;;32.47;;
35372;SDS011;21476;51.652;7.852;2023-02-19T12:22:18;10.60;;;5.50;;
35372;SDS011;21476;51.652;7.852;2023-02-19T12:36:01;2.92;;;1.83;;
35372;SDS011;21476;51.652;7.852;2023-02-19T12:44:36;8.70;;;4.68;;
35372;SDS011;21476;51.652;7.852;2023-02-19T12:47:12;11.02;;;7.35;;
35372;SDS011;21476;51.652;7.852;2023-02-19T12:49:44;13.60;;;8.95;;
35372;SDS011;21476;51.652;7.852;2023-02-19T12:52:23;7.63;;;3.40;;
35372;SDS011;21476;51.652;7.852;2023-02-19T12:54:55;6.25;;;4.10;;
35372;SDS011;21476;51.652;7.852;2023-02-19T12:57:25;10.20;;;6.50;;
35372;SDS011;21476;51.652;7.852;2023-02-19T12:59:59;5.95;;;3.20;;
35372;SDS011;21476;51.652;7.852;2023-02-19T13:05:22;5.25;;;2.83;;
35372;SDS011;21476;51.652;7.852;2023-02-19T13:13:21;10.90;;;7.57;;
35372;SDS011;21476;51.652;7.852;2023-02-19T13:15:52;4.32;;;2.38;;
35372;SDS011;21476;51.652;7.852;2023-02-19T13:20:53;4.95;;;3.03;;
35372;SDS011;21476;51.652;7.852;2023-02-19T13:37:30;9.48;;;6.25;;
35372;SDS011;21476;51.652;7.852;2023-02-19T13:39:58;5.90;;;3.95;;
35372;SDS011;21476;51.652;7.852;2023-02-19T13:42:32;8.25;;;4.75;;
35372;SDS011;21476;51.652;7.852;2023-02-19T13:45:00;6.72;;;3.80;;
35372;SDS011;21476;51.652;7.852;2023-02-19T13:47:48;5.47;;;2.72;;
35372;SDS011;21476;51.652;7.852;2023-02-19T13:50:27;5.70;;;3.88;;
35372;SDS011;21476;51.652;7.852;2023-02-19T13:52:59;5.25;;;3.33;;
35372;SDS011;21476;51.652;7.852;2023-02-19T13:55:44;4.85;;;2.92;;
35372;SDS011;21476;51.652;7.852;2023-02-19T14:00:57;8.23;;;6.05;;
35372;SDS011;21476;51.652;7.852;2023-02-19T14:03:28;4.90;;;3.05;;
35372;SDS011;21476;51.652;7.852;2023-02-19T14:06:04;3.88;;;2.70;;
35372;SDS011;21476;51.652;7.852;2023-02-19T14:08:45;4.80;;;2.00;;
35372;SDS011;21476;51.652;7.852;2023-02-19T14:11:11;4.70;;;1.83;;
35372;SDS011;21476;51.652;7.852;2023-02-19T14:16:32;3.88;;;2.30;;
35372;SDS011;21476;51.652;7.852;2023-02-19T14:19:15;5.60;;;2.30;;
35372;SDS011;21476;51.652;7.852;2023-02-19T14:22:00;4.70;;;3.22;;
35372;SDS011;21476;51.652;7.852;2023-02-19T14:24:26;5.32;;;3.00;;
35372;SDS011;21476;51.652;7.852;2023-02-19T14:26:53;7.65;;;2.90;;
35372;SDS011;21476;51.652;7.852;2023-02-19T14:29:20;3.88;;;2.60;;
35372;SDS011;21476;51.652;7.852;2023-02-19T14:31:46;7.45;;;3.42;;
35372;SDS011;21476;51.652;7.852;2023-02-19T14:34:13;5.63;;;2.83;;
35372;SDS011;21476;51.652;7.852;2023-02-19T14:36:57;7.00;;;2.60;;
35372;SDS011;21476;51.652;7.852;2023-02-19T14:39:25;4.50;;;2.85;;
35372;SDS011;21476;51.652;7.852;2023-02-19T14:41:53;5.85;;;2.90;;
35372;SDS011;21476;51.652;7.852;2023-02-19T14:44:29;5.00;;;3.30;;
35372;SDS011;21476;51.652;7.852;2023-02-19T14:49:39;4.70;;;3.15;;
35372;SDS011;21476;51.652;7.852;2023-02-19T14:52:20;3.78;;;2.70;;
35372;SDS011;21476;51.652;7.852;2023-02-19T14:57:44;5.82;;;3.45;;
35372;SDS011;21476;51.652;7.852;2023-02-19T15:02:46;6.43;;;4.32;;
35372;SDS011;21476;51.652;7.852;2023-02-19T15:05:23;11.50;;;5.88;;
35372;SDS011;21476;51.652;7.852;2023-02-19T15:07:55;7.20;;;6.05;;
35372;SDS011;21476;51.652;7.852;2023-02-19T15:10:23;5.88;;;5.22;;
35372;SDS011;21476;51.652;7.852;2023-02-19T15:13:09;9.38;;;6.15;;
35372;SDS011;21476;51.652;7.852;2023-02-19T15:15:44;6.60;;;4.82;;
35372;SDS011;21476;51.652;7.852;2023-02-19T15:18:17;6.75;;;5.07;;
35372;SDS011;21476;51.652;7.852;2023-02-19T15:20:45;5.78;;;4.25;;
35372;SDS011;21476;51.652;7.852;2023-02-19T15:23:13;6.00;;;4.00;;
35372;SDS011;21476;51.652;7.852;2023-02-19T15:25:48;8.02;;;5.10;;
35372;SDS011;21476;51.652;7.852;2023-02-19T15:28:26;15.27;;;7.78;;
35372;SDS011;21476;51.652;7.852;2023-02-19T15:33:23;10.40;;;5.65;;
35372;SDS011;21476;51.652;7.852;2023-02-19T15:35:52;7.93;;;5.47;;
35372;SDS011;21476;51.652;7.852;2023-02-19T15:38:21;9.52;;;6.25;;
35372;SDS011;21476;51.652;7.852;2023-02-19T15:40:47;9.57;;;5.35;;
35372;SDS011;21476;51.652;7.852;2023-02-19T15:46:05;5.78;;;4.15;;
35372;SDS011;21476;51.652;7.852;2023-02-19T15:48:40;4.90;;;3.15;;
35372;SDS011;21476;51.652;7.852;2023-02-19T15:51:12;5.30;;;3.33;;
35372;SDS011;21476;51.652;7.852;2023-02-19T15:53:47;6.13;;;3.75;;
35372;SDS011;21476;51.652;7.852;2023-02-19T15:56:19;5.30;;;3.78;;
35372;SDS011;21476;51.652;7.852;2023-02-19T15:58:54;6.05;;;3.63;;
35372;SDS011;21476;51.652;7.852;2023-02-19T16:01:23;5.53;;;3.53;;
35372;SDS011;21476;51.652;7.852;2023-02-19T16:03:50;5.80;;;3.97;;
35372;SDS011;21476;51.652;7.852;2023-02-19T16:06:20;5.40;;;3.97;;
35372;SDS011;21476;51.652;7.852;2023-02-19T16:19:46;4.95;;;3.40;;
35372;SDS011;21476;51.652;7.852;2023-02-19T16:22:19;8.15;;;4.57;;
35372;SDS011;21476;51.652;7.852;2023-02-19T16:24:50;5.80;;;4.35;;
35372;SDS011;21476;51.652;7.852;2023-02-19T16:27:32;5.60;;;4.22;;
35372;SDS011;21476;51.652;7.852;2023-02-19T16:32:41;7.15;;;4.88;;
35372;SDS011;21476;51.652;7.852;2023-02-19T16:38:13;7.70;;;5.47;;
35372;SDS011;21476;51.652;7.852;2023-02-19T16:45:44;5.30;;;3.80;;
35372;SDS011;21476;51.652;7.852;2023-02-19T16:48:10;5.68;;;3.70;;
35372;SDS011;21476;51.652;7.852;2023-02-19T16:50:37;7.35;;;4.45;;
35372;SDS011;21476;51.652;7.852;2023-02-19T16:53:21;7.68;;;5.38;;
35372;SDS011;21476;51.652;7.852;2023-02-19T16:55:52;6.95;;;4.95;;
35372;SDS011;21476;51.652;7.852;2023-02-19T16:58:18;7.38;;;5.43;;
35372;SDS011;21476;51.652;7.852;2023-02-19T17:00:44;6.35;;;4.72;;
35372;SDS011;21476;51.652;7.852;2023-02-19T17:03:10;7.70;;;5.18;;
35372;SDS011;21476;51.652;7.852;2023-02-19T17:05:41;6.68;;;4.78;;
35372;SDS011;21476;51.652;7.852;2023-02-19T17:11:03;7.80;;;6.20;;
35372;SDS011;21476;51.652;7.852;2023-02-19T17:13:30;10.00;;;6.50;;
35372;SDS011;21476;51.652;7.852;2023-02-19T17:15:56;9.32;;;6.82;;
35372;SDS011;21476;51.652;7.852;2023-02-19T17:18:22;9.15;;;6.63;;
35372;SDS011;21476;51.652;7.852;2023-02-19T17:21:07;8.15;;;6.45;;